Latakia/Bassel Al Assad Intl

Airport
ICAO code: 
OSLK
IATA Code: 
LTK
Summary
ICAO Region: 
MID
Territory: 
Location: 
Latakia, Al Ladhiqiyah
Serving: 
Latakia
Elevation: 
157 ft
Coordinates: 
Aerial View: 
35° 24' 3.938" N, 35° 56' 55.252" E
Metar
Observation
OSLK 022300Z 11006KT 9999 FEW026 SCT030 22/22 Q1006
Station
Lattakia
Date/Time
2022-07-02 23:00:00
Wind direction
110°
Wind speed
06 kts
Lowest cloud amount
few clouds
Temperature
22°C
Dew point
22°C
Humidity
100%
QNH
1006 hPa
Weather condition
n/a

Description

Bassel al-Assad International Airport is an airport serving Latakia, the principal port city of Syria.

Runways

Designator Length Width Surface Rops
17/35 2797 45 ASP Yes/Yes
Airport map: 
Aerial View: 

SKYbrary Partners:

Safety knowledge contributed by: